Time,TemperatureF,DewpointF,PressureIn,WindDirection,WindDirectionDegrees,WindSpeedMPH,WindSpeedGustMPH,Humidity,HourlyPrecipIn,Conditions,Clouds,dailyrainin,SoftwareType,DateUTC
2013-04-03 00:00:00,26.7,17.2,30.25,NW,317,0.0,0.0,67,0.00,,---,0.00,VWS V14.00,2013-04-03 05:00:00,
2013-04-03 00:05:00,26.8,17.3,30.25,NW,317,0.0,0.0,67,0.00,,---,0.00,VWS V14.00,2013-04-03 05:05:00,
2013-04-03 00:10:00,26.9,17.1,30.25,NW,317,0.0,0.0,66,0.00,,---,0.00,VWS V14.00,2013-04-03 05:10:00,
2013-04-03 00:16:00,27.3,17.1,30.25,NW,317,0.0,0.0,65,0.00,,---,0.00,VWS V14.00,2013-04-03 05:16:00,
2013-04-03 00:21:00,27.1,17.6,30.25,NW,317,0.0,0.0,67,0.00,,---,0.00,VWS V14.00,2013-04-03 05:21:00,
2013-04-03 00:26:00,26.8,17.3,30.25,NW,317,0.0,0.0,67,0.00,,---,0.00,VWS V14.00,2013-04-03 05:26:00,
2013-04-03 00:31:00,26.3,17.2,30.25,NW,317,0.0,0.0,68,0.00,,---,0.00,VWS V14.00,2013-04-03 05:31:00,
2013-04-03 00:36:00,25.8,17.4,30.25,NW,317,0.0,0.0,70,0.00,,---,0.00,VWS V14.00,2013-04-03 05:36:00,
2013-04-03 00:41:00,25.9,17.1,30.25,NW,317,0.0,0.0,69,0.00,,---,0.00,VWS V14.00,2013-04-03 05:41:00,
2013-04-03 00:46:00,26.1,17.3,30.25,NW,317,0.0,0.0,69,0.00,,---,0.00,VWS V14.00,2013-04-03 05:46:00,
2013-04-03 00:51:00,26.3,17.2,30.26,NW,317,0.0,0.0,68,0.00,,---,0.00,VWS V14.00,2013-04-03 05:51:00,
2013-04-03 00:56:00,26.9,17.1,30.26,NW,317,1.0,1.0,66,0.00,,---,0.00,VWS V14.00,2013-04-03 05:56:00,
2013-04-03 01:01:00,27.4,17.2,30.25,NW,317,0.0,0.0,65,0.00,,---,0.00,VWS V14.00,2013-04-03 06:01:00,
2013-04-03 01:06:00,27.8,16.9,30.25,NW,317,2.0,2.0,63,0.00,,---,0.00,VWS V14.00,2013-04-03 06:06:00,
2013-04-03 01:11:00,28.0,17.0,30.25,NW,317,0.0,0.0,63,0.00,,---,0.00,VWS V14.00,2013-04-03 06:11:00,
2013-04-03 01:16:00,27.8,17.2,30.25,NW,317,0.0,0.0,64,0.00,,---,0.00,VWS V14.00,2013-04-03 06:16:00,
2013-04-03 01:21:00,26.5,17.0,30.25,NW,317,0.0,0.0,67,0.00,,---,0.00,VWS V14.00,2013-04-03 06:21:00,
2013-04-03 01:26:00,25.6,16.9,30.25,NW,317,0.0,0.0,69,0.00,,---,0.00,VWS V14.00,2013-04-03 06:26:00,
2013-04-03 01:31:00,24.8,17.1,30.25,NW,317,0.0,0.0,72,0.00,,---,0.00,VWS V14.00,2013-04-03 06:31:00,
2013-04-03 01:36:00,24.6,16.9,30.26,NW,317,0.0,0.0,72,0.00,,---,0.00,VWS V14.00,2013-04-03 06:36:00,
2013-04-03 01:41:00,24.9,17.2,30.26,NW,317,0.0,0.0,72,0.00,,---,0.00,VWS V14.00,2013-04-03 06:41:00,
2013-04-03 01:46:00,24.8,17.4,30.26,NW,317,0.0,0.0,73,0.00,,---,0.00,VWS V14.00,2013-04-03 06:46:00,
2013-04-03 01:52:00,24.3,17.2,30.26,NW,317,0.0,0.0,74,0.00,,---,0.00,VWS V14.00,2013-04-03 06:52:00,
2013-04-03 01:57:00,23.9,17.1,30.26,NW,317,0.0,0.0,75,0.00,,---,0.00,VWS V14.00,2013-04-03 06:57:00,
2013-04-03 02:02:00,23.5,17.1,30.26,NW,317,0.0,0.0,76,0.00,,---,0.00,VWS V14.00,2013-04-03 07:02:00,
2013-04-03 02:07:00,23.4,17.3,30.26,NW,317,0.0,0.0,77,0.00,,---,0.00,VWS V14.00,2013-04-03 07:07:00,
2013-04-03 02:12:00,23.6,17.5,30.26,NW,317,0.0,0.0,77,0.00,,---,0.00,VWS V14.00,2013-04-03 07:12:00,
2013-04-03 02:17:00,23.6,17.5,30.26,NW,317,0.0,0.0,77,0.00,,---,0.00,VWS V14.00,2013-04-03 07:17:00,
2013-04-03 02:22:00,23.4,17.6,30.26,NW,317,0.0,0.0,78,0.00,,---,0.00,VWS V14.00,2013-04-03 07:22:00,
2013-04-03 02:27:00,23.7,17.6,30.26,NW,317,0.0,0.0,77,0.00,,---,0.00,VWS V14.00,2013-04-03 07:27:00,
2013-04-03 02:32:00,24.2,17.7,30.26,NW,317,0.0,0.0,76,0.00,,---,0.00,VWS V14.00,2013-04-03 07:32:00,
2013-04-03 02:37:00,24.5,17.4,30.26,NW,317,0.0,0.0,74,0.00,,---,0.00,VWS V14.00,2013-04-03 07:37:00,
2013-04-03 02:42:00,24.7,17.6,30.26,NW,317,0.0,0.0,74,0.00,,---,0.00,VWS V14.00,2013-04-03 07:42:00,
2013-04-03 02:47:00,25.0,17.6,30.26,NW,317,0.0,0.0,73,0.00,,---,0.00,VWS V14.00,2013-04-03 07:47:00,
2013-04-03 02:52:00,25.3,17.2,30.26,NW,317,0.0,0.0,71,0.00,,---,0.00,VWS V14.00,2013-04-03 07:52:00,
2013-04-03 02:57:00,25.5,17.1,30.26,NW,317,0.0,0.0,70,0.00,,---,0.00,VWS V14.00,2013-04-03 07:57:00,
2013-04-03 03:02:00,24.9,16.8,30.26,NW,317,0.0,0.0,71,0.00,,---,0.00,VWS V14.00,2013-04-03 08:02:00,
2013-04-03 03:07:00,24.1,17.0,30.26,NW,317,0.0,0.0,74,0.00,,---,0.00,VWS V14.00,2013-04-03 08:07:00,
2013-04-03 03:12:00,23.6,17.2,30.27,NW,317,0.0,0.0,76,0.00,,---,0.00,VWS V14.00,2013-04-03 08:12:00,
2013-04-03 03:17:00,23.5,17.1,30.27,NW,317,0.0,0.0,76,0.00,,---,0.00,VWS V14.00,2013-04-03 08:17:00,
2013-04-03 03:22:00,23.6,17.2,30.27,NW,317,0.0,0.0,76,0.00,,---,0.00,VWS V14.00,2013-04-03 08:22:00,
2013-04-03 03:27:00,23.6,17.5,30.27,NW,317,0.0,0.0,77,0.00,,---,0.00,VWS V14.00,2013-04-03 08:27:00,
2013-04-03 03:32:00,23.4,17.3,30.27,NW,317,0.0,0.0,77,0.00,,---,0.00,VWS V14.00,2013-04-03 08:32:00,
2013-04-03 03:37:00,23.5,17.4,30.27,NW,317,0.0,0.0,77,0.00,,---,0.00,VWS V14.00,2013-04-03 08:37:00,
2013-04-03 03:42:00,23.3,17.2,30.27,NW,317,0.0,0.0,77,0.00,,---,0.00,VWS V14.00,2013-04-03 08:42:00,
2013-04-03 03:47:00,23.1,17.3,30.28,NW,317,0.0,0.0,78,0.00,,---,0.00,VWS V14.00,2013-04-03 08:47:00,
2013-04-03 03:52:00,22.7,16.9,30.28,NW,317,0.0,0.0,78,0.00,,---,0.00,VWS V14.00,2013-04-03 08:52:00,
2013-04-03 03:57:00,22.5,17.0,30.28,NW,317,0.0,0.0,79,0.00,,---,0.00,VWS V14.00,2013-04-03 08:57:00,
2013-04-03 04:02:00,22.2,16.7,30.28,NW,317,0.0,0.0,79,0.00,,---,0.00,VWS V14.00,2013-04-03 09:02:00,
2013-04-03 04:07:00,21.9,16.7,30.28,NW,317,0.0,0.0,80,0.00,,---,0.00,VWS V14.00,2013-04-03 09:07:00,
2013-04-03 04:12:00,21.7,16.5,30.29,NW,317,0.0,0.0,80,0.00,,---,0.00,VWS V14.00,2013-04-03 09:12:00,
2013-04-03 04:17:00,21.6,16.7,30.29,NW,317,0.0,0.0,81,0.00,,---,0.00,VWS V14.00,2013-04-03 09:17:00,
2013-04-03 04:23:00,21.4,16.5,30.29,NW,317,0.0,0.0,81,0.00,,---,0.00,VWS V14.00,2013-04-03 09:23:00,
2013-04-03 04:28:00,21.2,16.6,30.29,NW,317,0.0,0.0,82,0.00,,---,0.00,VWS V14.00,2013-04-03 09:28:00,
2013-04-03 04:33:00,21.7,17.3,30.29,NW,317,0.0,2.0,83,0.00,,---,0.00,VWS V14.00,2013-04-03 09:33:00,
2013-04-03 04:38:00,22.4,17.8,30.29,NW,317,0.0,2.0,82,0.00,,---,0.00,VWS V14.00,2013-04-03 09:38:00,
2013-04-03 04:43:00,22.8,17.9,30.29,NW,317,0.0,0.0,81,0.00,,---,0.00,VWS V14.00,2013-04-03 09:43:00,
2013-04-03 04:48:00,22.5,17.3,30.29,NW,317,0.0,0.0,80,0.00,,---,0.00,VWS V14.00,2013-04-03 09:48:00,
2013-04-03 04:53:00,21.9,17.0,30.29,NW,317,0.0,0.0,81,0.00,,---,0.00,VWS V14.00,2013-04-03 09:53:00,
2013-04-03 04:58:00,21.7,17.1,30.29,NW,317,0.0,0.0,82,0.00,,---,0.00,VWS V14.00,2013-04-03 09:58:00,
2013-04-03 05:03:00,21.5,16.9,30.29,NW,317,0.0,0.0,82,0.00,,---,0.00,VWS V14.00,2013-04-03 10:03:00,
2013-04-03 05:08:00,21.5,17.1,30.29,NW,317,0.0,0.0,83,0.00,,---,0.00,VWS V14.00,2013-04-03 10:08:00,
2013-04-03 05:13:00,21.4,16.8,30.29,NW,317,0.0,0.0,82,0.00,,---,0.00,VWS V14.00,2013-04-03 10:13:00,
2013-04-03 05:18:00,21.2,16.6,30.29,NW,317,0.0,0.0,82,0.00,,---,0.00,VWS V14.00,2013-04-03 10:18:00,
2013-04-03 05:23:00,21.1,16.8,30.29,NW,317,0.0,0.0,83,0.00,,---,0.00,VWS V14.00,2013-04-03 10:23:00,
2013-04-03 05:28:00,21.3,17.0,30.29,NW,317,0.0,0.0,83,0.00,,---,0.00,VWS V14.00,2013-04-03 10:28:00,
2013-04-03 05:33:00,21.1,16.5,30.30,NW,317,0.0,0.0,82,0.00,,---,0.00,VWS V14.00,2013-04-03 10:33:00,
2013-04-03 05:38:00,20.8,16.5,30.30,NW,317,0.0,0.0,83,0.00,,---,0.00,VWS V14.00,2013-04-03 10:38:00,
2013-04-03 05:43:00,20.9,16.6,30.30,NW,317,0.0,0.0,83,0.00,,---,0.00,VWS V14.00,2013-04-03 10:43:00,
2013-04-03 05:48:00,21.0,16.7,30.30,NW,317,0.0,0.0,83,0.00,,---,0.00,VWS V14.00,2013-04-03 10:48:00,
2013-04-03 05:53:00,21.0,16.7,30.31,NW,317,0.0,0.0,83,0.00,,---,0.00,VWS V14.00,2013-04-03 10:53:00,
2013-04-03 05:58:00,20.8,16.5,30.31,NW,317,0.0,0.0,83,0.00,,---,0.00,VWS V14.00,2013-04-03 10:58:00,
2013-04-03 06:03:00,20.6,16.3,30.31,NW,317,0.0,0.0,83,0.00,,---,0.00,VWS V14.00,2013-04-03 11:03:00,
2013-04-03 06:08:00,20.6,16.5,30.31,NW,317,0.0,0.0,84,0.00,,---,0.00,VWS V14.00,2013-04-03 11:08:00,
2013-04-03 06:13:00,20.7,16.4,30.32,NW,317,0.0,0.0,83,0.00,,---,0.00,VWS V14.00,2013-04-03 11:13:00,
2013-04-03 06:18:00,20.3,16.2,30.32,NW,317,0.0,0.0,84,0.00,,---,0.00,VWS V14.00,2013-04-03 11:18:00,
2013-04-03 06:23:00,20.1,16.0,30.33,NW,317,0.0,0.0,84,0.00,,---,0.00,VWS V14.00,2013-04-03 11:23:00,
2013-04-03 06:28:00,20.0,16.2,30.33,NW,317,0.0,0.0,85,0.00,,---,0.00,VWS V14.00,2013-04-03 11:28:00,
2013-04-03 06:33:00,20.0,16.2,30.33,NW,317,0.0,0.0,85,0.00,,---,0.00,VWS V14.00,2013-04-03 11:33:00,
2013-04-03 06:38:00,20.0,16.2,30.33,NW,317,0.0,0.0,85,0.00,,---,0.00,VWS V14.00,2013-04-03 11:38:00,
2013-04-03 06:43:00,20.0,16.2,30.34,NW,317,0.0,0.0,85,0.00,,---,0.00,VWS V14.00,2013-04-03 11:43:00,
2013-04-03 06:48:00,19.8,16.0,30.34,NW,317,0.0,0.0,85,0.00,,---,0.00,VWS V14.00,2013-04-03 11:48:00,
2013-04-03 06:53:00,19.9,16.1,30.34,NW,317,0.0,0.0,85,0.00,,---,0.00,VWS V14.00,2013-04-03 11:53:00,
2013-04-03 06:58:00,20.0,16.5,30.34,NW,317,0.0,0.0,86,0.00,,---,0.00,VWS V14.00,2013-04-03 11:58:00,
2013-04-03 07:03:00,20.2,16.4,30.35,NW,317,0.0,0.0,85,0.00,,---,0.00,VWS V14.00,2013-04-03 12:03:00,
2013-04-03 07:09:00,20.7,17.2,30.35,NW,317,0.0,0.0,86,0.00,,---,0.00,VWS V14.00,2013-04-03 12:09:00,
2013-04-03 07:14:00,21.3,17.8,30.35,NW,317,0.0,0.0,86,0.00,,---,0.00,VWS V14.00,2013-04-03 12:14:00,
2013-04-03 07:19:00,22.0,18.2,30.35,NW,317,0.0,0.0,85,0.00,,---,0.00,VWS V14.00,2013-04-03 12:19:00,
2013-04-03 07:24:00,22.2,18.1,30.35,NW,317,0.0,0.0,84,0.00,,---,0.00,VWS V14.00,2013-04-03 12:24:00,
2013-04-03 07:29:00,22.9,18.8,30.36,NW,317,0.0,0.0,84,0.00,,---,0.00,VWS V14.00,2013-04-03 12:29:00,
2013-04-03 07:34:00,23.5,19.1,30.36,NW,317,0.0,0.0,83,0.00,,---,0.00,VWS V14.00,2013-04-03 12:34:00,
2013-04-03 07:39:00,24.4,19.7,30.36,NW,317,0.0,0.0,82,0.00,,---,0.00,VWS V14.00,2013-04-03 12:39:00,
2013-04-03 07:44:00,25.3,20.0,30.36,NW,317,0.0,0.0,80,0.00,,---,0.00,VWS V14.00,2013-04-03 12:44:00,
2013-04-03 07:49:00,26.3,20.4,30.35,NW,317,0.0,0.0,78,0.00,,---,0.00,VWS V14.00,2013-04-03 12:49:00,
2013-04-03 07:54:00,26.7,20.5,30.36,NW,317,0.0,0.0,77,0.00,,---,0.00,VWS V14.00,2013-04-03 12:54:00,
2013-04-03 07:59:00,27.0,20.8,30.36,NW,317,0.0,0.0,77,0.00,,---,0.00,VWS V14.00,2013-04-03 12:59:00,
2013-04-03 08:04:00,27.6,21.0,30.36,NW,317,0.0,0.0,76,0.00,,---,0.00,VWS V14.00,2013-04-03 13:04:00,
2013-04-03 08:09:00,28.1,20.9,30.36,NW,317,0.0,0.0,74,0.00,,---,0.00,VWS V14.00,2013-04-03 13:09:00,
2013-04-03 08:14:00,29.0,22.1,30.37,NW,317,0.0,0.0,75,0.00,,---,0.00,VWS V14.00,2013-04-03 13:14:00,
2013-04-03 08:19:00,29.9,22.3,30.36,NW,317,0.0,0.0,73,0.00,,---,0.00,VWS V14.00,2013-04-03 13:19:00,
2013-04-03 08:24:00,30.2,22.3,30.37,NW,317,0.0,0.0,72,0.00,,---,0.00,VWS V14.00,2013-04-03 13:24:00,
2013-04-03 08:29:00,30.5,22.2,30.37,NW,317,0.0,3.0,71,0.00,,---,0.00,VWS V14.00,2013-04-03 13:29:00,
2013-04-03 08:34:00,31.3,21.6,30.37,NW,317,0.0,4.0,67,0.00,,---,0.00,VWS V14.00,2013-04-03 13:34:00,
2013-04-03 08:39:00,31.7,19.8,30.36,NW,317,0.0,1.0,61,0.00,,---,0.00,VWS V14.00,2013-04-03 13:39:00,
2013-04-03 08:44:00,32.0,20.1,30.36,NW,317,0.0,4.0,61,0.00,,---,0.00,VWS V14.00,2013-04-03 13:44:00,
2013-04-03 08:49:00,32.5,19.8,30.36,NNW,327,3.0,3.0,59,0.00,,---,0.00,VWS V14.00,2013-04-03 13:49:00,
2013-04-03 08:54:00,32.9,19.8,30.37,NNW,327,0.0,3.0,58,0.00,,---,0.00,VWS V14.00,2013-04-03 13:54:00,
2013-04-03 08:59:00,33.5,21.5,30.36,NNW,329,1.0,3.0,61,0.00,,---,0.00,VWS V14.00,2013-04-03 13:59:00,
2013-04-03 09:04:00,33.9,21.1,30.36,NNW,329,0.0,1.0,59,0.00,,---,0.00,VWS V14.00,2013-04-03 14:04:00,
2013-04-03 09:09:00,34.4,21.6,30.36,NNW,329,0.0,0.0,59,0.00,,---,0.00,VWS V14.00,2013-04-03 14:09:00,
2013-04-03 09:14:00,34.9,20.8,30.36,NNW,329,0.0,0.0,56,0.00,,---,0.00,VWS V14.00,2013-04-03 14:14:00,
2013-04-03 09:19:00,35.2,20.7,30.36,NE,54,0.0,0.0,55,0.00,,---,0.00,VWS V14.00,2013-04-03 14:19:00,
2013-04-03 09:24:00,35.7,19.8,30.36,NE,53,0.0,0.0,52,0.00,,---,0.00,VWS V14.00,2013-04-03 14:24:00,
2013-04-03 09:29:00,36.2,22.0,30.36,ENE,67,1.0,1.0,56,0.00,,---,0.00,VWS V14.00,2013-04-03 14:29:00,
2013-04-03 09:34:00,36.2,18.4,30.36,East,87,0.0,1.0,48,0.00,,---,0.00,VWS V14.00,2013-04-03 14:34:00,
2013-04-03 09:39:00,36.6,19.7,30.36,East,87,0.0,1.0,50,0.00,,---,0.00,VWS V14.00,2013-04-03 14:39:00,
2013-04-03 09:44:00,37.3,19.9,30.36,East,94,0.0,1.0,49,0.00,,---,0.00,VWS V14.00,2013-04-03 14:44:00,
2013-04-03 09:49:00,37.5,17.6,30.36,East,94,2.0,2.0,44,0.00,,---,0.00,VWS V14.00,2013-04-03 14:49:00,
2013-04-03 09:54:00,37.2,17.3,30.36,East,94,0.0,3.0,44,0.00,,---,0.00,VWS V14.00,2013-04-03 14:54:00,
2013-04-03 09:59:00,37.7,17.8,30.36,ESE,106,0.0,1.0,44,0.00,,---,0.00,VWS V14.00,2013-04-03 14:59:00,
2013-04-03 10:04:00,37.8,16.8,30.36,NNE,24,0.0,3.0,42,0.00,,---,0.00,VWS V14.00,2013-04-03 15:04:00,
2013-04-03 10:09:00,37.8,12.6,30.36,NNE,20,3.0,6.0,35,0.00,,---,0.00,VWS V14.00,2013-04-03 15:09:00,
2013-04-03 10:14:00,37.4,12.9,30.36,NE,39,1.0,3.0,36,0.00,,---,0.00,VWS V14.00,2013-04-03 15:14:00,
2013-04-03 10:19:00,37.4,12.3,30.36,ENE,71,0.0,5.0,35,0.00,,---,0.00,VWS V14.00,2013-04-03 15:19:00,
2013-04-03 10:25:00,37.7,13.8,30.35,NE,38,3.0,6.0,37,0.00,,---,0.00,VWS V14.00,2013-04-03 15:25:00,
2013-04-03 10:30:00,38.4,15.0,30.35,NNE,20,2.0,3.0,38,0.00,,---,0.00,VWS V14.00,2013-04-03 15:30:00,
2013-04-03 10:35:00,38.2,11.6,30.35,ENE,57,0.0,5.0,33,0.00,,---,0.00,VWS V14.00,2013-04-03 15:35:00,
2013-04-03 10:40:00,38.1,13.5,30.35,NW,320,0.0,5.0,36,0.00,,---,0.00,VWS V14.00,2013-04-03 15:40:00,
2013-04-03 10:45:00,38.4,14.4,30.35,NNE,32,4.0,6.0,37,0.00,,---,0.00,VWS V14.00,2013-04-03 15:45:00,
2013-04-03 10:50:00,37.9,13.4,30.34,NNE,26,0.0,5.0,36,0.00,,---,0.00,VWS V14.00,2013-04-03 15:50:00,
2013-04-03 10:55:00,38.4,15.0,30.35,NNE,12,2.0,5.0,38,0.00,,---,0.00,VWS V14.00,2013-04-03 15:55:00,
2013-04-03 11:00:00,38.6,14.6,30.34,North,360,5.0,5.0,37,0.00,,---,0.00,VWS V14.00,2013-04-03 16:00:00,
2013-04-03 11:05:00,38.6,16.4,30.35,NNE,17,0.0,6.0,40,0.00,,---,0.00,VWS V14.00,2013-04-03 16:05:00,
2013-04-03 11:10:00,39.2,14.5,30.35,NNE,22,1.0,4.0,36,0.00,,---,0.00,VWS V14.00,2013-04-03 16:10:00,
2013-04-03 11:15:00,38.9,12.9,30.34,NE,53,4.0,11.0,34,0.00,,---,0.00,VWS V14.00,2013-04-03 16:15:00,
2013-04-03 11:20:00,38.8,12.9,30.34,North,5,1.0,4.0,34,0.00,,---,0.00,VWS V14.00,2013-04-03 16:20:00,
2013-04-03 11:25:00,39.4,17.1,30.34,NE,35,6.0,6.0,40,0.00,,---,0.00,VWS V14.00,2013-04-03 16:25:00,
2013-04-03 11:30:00,39.3,13.9,30.34,ENE,60,3.0,6.0,35,0.00,,---,0.00,VWS V14.00,2013-04-03 16:30:00,
2013-04-03 11:35:00,39.4,15.9,30.33,ENE,70,3.0,3.0,38,0.00,,---,0.00,VWS V14.00,2013-04-03 16:35:00,
2013-04-03 11:40:00,40.2,16.0,30.33,East,88,0.0,3.0,37,0.00,,---,0.00,VWS V14.00,2013-04-03 16:40:00,
2013-04-03 11:45:00,40.1,14.0,30.33,NE,49,1.0,6.0,34,0.00,,---,0.00,VWS V14.00,2013-04-03 16:45:00,
2013-04-03 11:50:00,39.7,13.6,30.33,NE,49,3.0,6.0,34,0.00,,---,0.00,VWS V14.00,2013-04-03 16:50:00,
2013-04-03 11:55:00,39.5,14.8,30.33,NE,53,2.0,6.0,36,0.00,,---,0.00,VWS V14.00,2013-04-03 16:55:00,
2013-04-03 12:00:00,39.7,16.2,30.33,WNW,298,0.0,4.0,38,0.00,,---,0.00,VWS V14.00,2013-04-03 17:00:00,
2013-04-03 12:05:00,40.2,15.4,30.33,ENE,64,4.0,9.0,36,0.00,,---,0.00,VWS V14.00,2013-04-03 17:05:00,
2013-04-03 12:10:00,40.1,15.9,30.33,ENE,63,0.0,0.0,37,0.00,,---,0.00,VWS V14.00,2013-04-03 17:10:00,
2013-04-03 12:15:00,39.9,15.1,30.33,ESE,122,3.0,9.0,36,0.00,,---,0.00,VWS V14.00,2013-04-03 17:15:00,
2013-04-03 12:20:00,40.1,16.5,30.32,ESE,123,2.0,5.0,38,0.00,,---,0.00,VWS V14.00,2013-04-03 17:20:00,
2013-04-03 12:25:00,40.6,15.8,30.33,East,88,0.0,6.0,36,0.00,,---,0.00,VWS V14.00,2013-04-03 17:25:00,
2013-04-03 12:30:00,40.4,16.2,30.33,SE,130,4.0,5.0,37,0.00,,---,0.00,VWS V14.00,2013-04-03 17:30:00,
2013-04-03 12:35:00,40.3,15.5,30.33,SE,135,0.0,5.0,36,0.00,,---,0.00,VWS V14.00,2013-04-03 17:35:00,
2013-04-03 12:40:00,40.4,16.2,30.33,ENE,65,0.0,0.0,37,0.00,,---,0.00,VWS V14.00,2013-04-03 17:40:00,
2013-04-03 12:45:00,40.3,16.1,30.33,ENE,57,0.0,3.0,37,0.00,,---,0.00,VWS V14.00,2013-04-03 17:45:00,
2013-04-03 12:50:00,40.2,14.8,30.33,ENE,78,0.0,5.0,35,0.00,,---,0.00,VWS V14.00,2013-04-03 17:50:00,
2013-04-03 12:55:00,40.1,14.0,30.33,NE,38,3.0,3.0,34,0.00,,---,0.00,VWS V14.00,2013-04-03 17:55:00,
2013-04-03 13:00:00,40.1,16.5,30.33,NNE,31,0.0,0.0,38,0.00,,---,0.00,VWS V14.00,2013-04-03 18:00:00,
2013-04-03 13:05:00,40.4,16.2,30.33,NE,42,2.0,2.0,37,0.00,,---,0.00,VWS V14.00,2013-04-03 18:05:00,
2013-04-03 13:10:00,40.9,16.0,30.33,ESE,117,2.0,2.0,36,0.00,,---,0.00,VWS V14.00,2013-04-03 18:10:00,
2013-04-03 13:15:00,41.1,16.2,30.32,NE,35,3.0,3.0,36,0.00,,---,0.00,VWS V14.00,2013-04-03 18:15:00,
2013-04-03 13:20:00,41.3,15.1,30.32,ENE,74,0.0,0.0,34,0.00,,---,0.00,VWS V14.00,2013-04-03 18:20:00,
2013-04-03 13:26:00,41.6,14.6,30.32,ESE,112,1.0,1.0,33,0.00,,---,0.00,VWS V14.00,2013-04-03 18:26:00,
2013-04-03 13:31:00,41.3,15.1,30.32,East,87,1.0,1.0,34,0.00,,---,0.00,VWS V14.00,2013-04-03 18:31:00,
2013-04-03 13:36:00,41.5,13.9,30.32,East,84,0.0,0.0,32,0.00,,---,0.00,VWS V14.00,2013-04-03 18:36:00,
2013-04-03 13:41:00,41.9,14.9,30.32,SW,215,2.0,2.0,33,0.00,,---,0.00,VWS V14.00,2013-04-03 18:41:00,
2013-04-03 13:46:00,41.9,13.5,30.32,SSW,206,2.0,6.0,31,0.00,,---,0.00,VWS V14.00,2013-04-03 18:46:00,
2013-04-03 13:51:00,42.0,14.3,30.32,SSE,165,2.0,2.0,32,0.00,,---,0.00,VWS V14.00,2013-04-03 18:51:00,
2013-04-03 13:56:00,42.7,15.6,30.32,SSW,196,2.0,6.0,33,0.00,,---,0.00,VWS V14.00,2013-04-03 18:56:00,
2013-04-03 14:01:00,42.7,14.2,30.32,West,280,1.0,3.0,31,0.00,,---,0.00,VWS V14.00,2013-04-03 19:01:00,
2013-04-03 14:06:00,43.0,16.6,30.31,South,169,5.0,5.0,34,0.00,,---,0.00,VWS V14.00,2013-04-03 19:06:00,
2013-04-03 14:11:00,42.9,13.6,30.31,ESE,105,0.0,1.0,30,0.00,,---,0.00,VWS V14.00,2013-04-03 19:11:00,
2013-04-03 14:16:00,42.7,14.9,30.31,SSE,158,3.0,3.0,32,0.00,,---,0.00,VWS V14.00,2013-04-03 19:16:00,
2013-04-03 14:21:00,43.1,14.5,30.31,South,169,3.0,4.0,31,0.00,,---,0.00,VWS V14.00,2013-04-03 19:21:00,
2013-04-03 14:26:00,43.7,15.1,30.30,SSE,160,5.0,5.0,31,0.00,,---,0.00,VWS V14.00,2013-04-03 19:26:00,
2013-04-03 14:31:00,43.3,15.4,30.30,WSW,238,2.0,6.0,32,0.00,,---,0.00,VWS V14.00,2013-04-03 19:31:00,
2013-04-03 14:37:00,43.5,16.3,30.29,SSE,157,3.0,6.0,33,0.00,,---,0.00,VWS V14.00,2013-04-03 19:37:00,
2013-04-03 14:42:00,43.8,15.9,30.30,SSE,163,6.0,6.0,32,0.00,,---,0.00,VWS V14.00,2013-04-03 19:42:00,
2013-04-03 14:47:00,44.0,14.6,30.29,SE,132,3.0,7.0,30,0.00,,---,0.00,VWS V14.00,2013-04-03 19:47:00,
2013-04-03 14:52:00,43.7,16.5,30.29,South,174,4.0,4.0,33,0.00,,---,0.00,VWS V14.00,2013-04-03 19:52:00,
2013-04-03 14:57:00,43.9,13.7,30.29,SSE,150,3.0,6.0,29,0.00,,---,0.00,VWS V14.00,2013-04-03 19:57:00,
2013-04-03 15:02:00,43.8,14.4,30.29,South,175,8.0,8.0,30,0.00,,---,0.00,VWS V14.00,2013-04-03 20:02:00,
2013-04-03 15:07:00,43.9,13.7,30.29,SSW,198,6.0,6.0,29,0.00,,---,0.00,VWS V14.00,2013-04-03 20:07:00,
2013-04-03 15:12:00,43.8,14.4,30.29,SSE,159,4.0,5.0,30,0.00,,---,0.00,VWS V14.00,2013-04-03 20:12:00,
2013-04-03 15:17:00,43.8,12.8,30.29,SE,142,3.0,6.0,28,0.00,,---,0.00,VWS V14.00,2013-04-03 20:17:00,
2013-04-03 15:22:00,43.8,11.2,30.28,SW,219,4.0,4.0,26,0.00,,---,0.00,VWS V14.00,2013-04-03 20:22:00,
2013-04-03 15:27:00,43.6,12.7,30.28,SSE,168,4.0,5.0,28,0.00,,---,0.00,VWS V14.00,2013-04-03 20:27:00,
2013-04-03 15:32:00,43.8,12.8,30.28,South,169,4.0,4.0,28,0.00,,---,0.00,VWS V14.00,2013-04-03 20:32:00,
2013-04-03 15:37:00,43.9,12.9,30.28,SW,217,1.0,4.0,28,0.00,,---,0.00,VWS V14.00,2013-04-03 20:37:00,
2013-04-03 15:42:00,43.8,12.8,30.28,SW,218,0.0,3.0,28,0.00,,---,0.00,VWS V14.00,2013-04-03 20:42:00,
2013-04-03 15:47:00,44.0,13.0,30.28,South,176,1.0,3.0,28,0.00,,---,0.00,VWS V14.00,2013-04-03 20:47:00,
2013-04-03 15:52:00,43.8,13.6,30.27,SW,220,4.0,4.0,29,0.00,,---,0.00,VWS V14.00,2013-04-03 20:52:00,
2013-04-03 15:57:00,44.0,15.3,30.27,SSE,164,3.0,6.0,31,0.00,,---,0.00,VWS V14.00,2013-04-03 20:57:00,
2013-04-03 16:02:00,44.3,16.3,30.26,SSW,200,1.0,2.0,32,0.00,,---,0.00,VWS V14.00,2013-04-03 21:02:00,
2013-04-03 16:07:00,44.2,14.8,30.26,ESE,119,5.0,5.0,30,0.00,,---,0.00,VWS V14.00,2013-04-03 21:07:00,
2013-04-03 16:12:00,43.8,15.9,30.27,South,171,6.0,8.0,32,0.00,,---,0.00,VWS V14.00,2013-04-03 21:12:00,
2013-04-03 16:17:00,44.0,15.3,30.26,SE,139,4.0,7.0,31,0.00,,---,0.00,VWS V14.00,2013-04-03 21:17:00,
2013-04-03 16:22:00,43.8,15.9,30.26,SSW,192,1.0,12.0,32,0.00,,---,0.00,VWS V14.00,2013-04-03 21:22:00,
2013-04-03 16:27:00,43.9,16.7,30.26,South,173,3.0,7.0,33,0.00,,---,0.00,VWS V14.00,2013-04-03 21:27:00,
2013-04-03 16:32:00,43.8,15.9,30.26,South,171,6.0,6.0,32,0.00,,---,0.00,VWS V14.00,2013-04-03 21:32:00,
2013-04-03 16:37:00,43.9,16.7,30.26,SSE,152,4.0,4.0,33,0.00,,---,0.00,VWS V14.00,2013-04-03 21:37:00,
2013-04-03 16:42:00,44.1,18.2,30.26,SE,132,5.0,5.0,35,0.00,,---,0.00,VWS V14.00,2013-04-03 21:42:00,
2013-04-03 16:47:00,43.9,16.7,30.26,South,171,4.0,9.0,33,0.00,,---,0.00,VWS V14.00,2013-04-03 21:47:00,
2013-04-03 16:52:00,43.8,16.6,30.26,South,178,2.0,5.0,33,0.00,,---,0.00,VWS V14.00,2013-04-03 21:52:00,
2013-04-03 16:57:00,43.7,16.5,30.26,SSW,195,4.0,4.0,33,0.00,,---,0.00,VWS V14.00,2013-04-03 21:57:00,
2013-04-03 17:02:00,44.1,18.2,30.26,South,177,3.0,4.0,35,0.00,,---,0.00,VWS V14.00,2013-04-03 22:02:00,
2013-04-03 17:08:00,43.8,16.6,30.26,South,169,7.0,7.0,33,0.00,,---,0.00,VWS V14.00,2013-04-03 22:08:00,
2013-04-03 17:13:00,43.7,16.5,30.25,SSE,167,4.0,6.0,33,0.00,,---,0.00,VWS V14.00,2013-04-03 22:13:00,
2013-04-03 17:18:00,43.8,16.6,30.25,South,171,3.0,5.0,33,0.00,,---,0.00,VWS V14.00,2013-04-03 22:18:00,
2013-04-03 17:23:00,44.0,16.0,30.25,South,176,4.0,7.0,32,0.00,,---,0.00,VWS V14.00,2013-04-03 22:23:00,
2013-04-03 17:28:00,43.6,15.7,30.25,SSE,147,2.0,3.0,32,0.00,,---,0.00,VWS V14.00,2013-04-03 22:28:00,
2013-04-03 17:33:00,43.7,15.1,30.25,SE,141,2.0,5.0,31,0.00,,---,0.00,VWS V14.00,2013-04-03 22:33:00,
2013-04-03 17:38:00,43.5,14.9,30.25,SSW,211,5.0,6.0,31,0.00,,---,0.00,VWS V14.00,2013-04-03 22:38:00,
2013-04-03 17:43:00,43.5,14.1,30.25,South,175,0.0,6.0,30,0.00,,---,0.00,VWS V14.00,2013-04-03 22:43:00,
2013-04-03 17:48:00,43.4,14.8,30.25,SSW,204,3.0,4.0,31,0.00,,---,0.00,VWS V14.00,2013-04-03 22:48:00,
2013-04-03 17:53:00,43.3,14.7,30.24,South,173,1.0,2.0,31,0.00,,---,0.00,VWS V14.00,2013-04-03 22:53:00,
2013-04-03 17:58:00,43.2,15.4,30.24,SSE,159,2.0,6.0,32,0.00,,---,0.00,VWS V14.00,2013-04-03 22:58:00,
2013-04-03 18:03:00,43.2,16.7,30.24,South,184,4.0,4.0,34,0.00,,---,0.00,VWS V14.00,2013-04-03 23:03:00,
2013-04-03 18:08:00,43.1,16.7,30.24,South,181,4.0,4.0,34,0.00,,---,0.00,VWS V14.00,2013-04-03 23:08:00,
2013-04-03 18:13:00,42.9,17.8,30.23,SSE,165,0.0,6.0,36,0.00,,---,0.00,VWS V14.00,2013-04-03 23:13:00,
2013-04-03 18:18:00,42.8,17.1,30.24,SSW,212,4.0,6.0,35,0.00,,---,0.00,VWS V14.00,2013-04-03 23:18:00,
2013-04-03 18:23:00,42.8,17.1,30.23,SSE,167,4.0,6.0,35,0.00,,---,0.00,VWS V14.00,2013-04-03 23:23:00,
2013-04-03 18:28:00,42.7,17.6,30.23,South,173,3.0,6.0,36,0.00,,---,0.00,VWS V14.00,2013-04-03 23:28:00,
2013-04-03 18:33:00,42.6,18.8,30.23,SSW,195,0.0,7.0,38,0.00,,---,0.00,VWS V14.00,2013-04-03 23:33:00,
2013-04-03 18:38:00,42.5,18.7,30.23,South,180,0.0,4.0,38,0.00,,---,0.00,VWS V14.00,2013-04-03 23:38:00,
2013-04-03 18:43:00,42.3,19.1,30.23,SSW,192,3.0,5.0,39,0.00,,---,0.00,VWS V14.00,2013-04-03 23:43:00,
2013-04-03 18:48:00,42.2,19.0,30.23,South,177,3.0,7.0,39,0.00,,---,0.00,VWS V14.00,2013-04-03 23:48:00,
2013-04-03 18:53:00,42.0,19.5,30.24,South,169,0.0,6.0,40,0.00,,---,0.00,VWS V14.00,2013-04-03 23:53:00,
2013-04-03 18:58:00,41.8,19.3,30.24,South,176,0.0,5.0,40,0.00,,---,0.00,VWS V14.00,2013-04-03 23:58:00,
2013-04-03 19:03:00,41.6,19.7,30.23,SSW,205,3.0,4.0,41,0.00,,---,0.00,VWS V14.00,2013-04-04 00:03:00,
2013-04-03 19:08:00,41.4,20.0,30.23,South,178,3.0,3.0,42,0.00,,---,0.00,VWS V14.00,2013-04-04 00:08:00,
2013-04-03 19:13:00,41.1,19.8,30.23,SSW,199,1.0,2.0,42,0.00,,---,0.00,VWS V14.00,2013-04-04 00:13:00,
2013-04-03 19:19:00,41.0,19.1,30.22,South,186,0.0,2.0,41,0.00,,---,0.00,VWS V14.00,2013-04-04 00:19:00,
2013-04-03 19:24:00,40.9,19.6,30.22,South,186,0.0,0.0,42,0.00,,---,0.00,VWS V14.00,2013-04-04 00:24:00,
2013-04-03 19:29:00,40.6,19.3,30.22,South,186,0.0,1.0,42,0.00,,---,0.00,VWS V14.00,2013-04-04 00:29:00,
2013-04-03 19:34:00,40.3,19.0,30.22,South,186,0.0,1.0,42,0.00,,---,0.00,VWS V14.00,2013-04-04 00:34:00,
2013-04-03 19:39:00,40.1,19.4,30.22,South,186,0.0,2.0,43,0.00,,---,0.00,VWS V14.00,2013-04-04 00:39:00,
2013-04-03 19:44:00,39.8,19.7,30.22,South,186,0.0,0.0,44,0.00,,---,0.00,VWS V14.00,2013-04-04 00:44:00,
2013-04-03 19:49:00,39.5,19.4,30.22,South,175,0.0,0.0,44,0.00,,---,0.00,VWS V14.00,2013-04-04 00:49:00,
2013-04-03 19:54:00,39.2,19.1,30.22,South,175,0.0,0.0,44,0.00,,---,0.00,VWS V14.00,2013-04-04 00:54:00,
2013-04-03 19:59:00,38.9,19.9,30.22,South,175,0.0,0.0,46,0.00,,---,0.00,VWS V14.00,2013-04-04 00:59:00,
2013-04-03 20:04:00,38.5,19.5,30.21,South,175,0.0,0.0,46,0.00,,---,0.00,VWS V14.00,2013-04-04 01:04:00,
2013-04-03 20:09:00,38.3,19.4,30.21,South,175,0.0,0.0,46,0.00,,---,0.00,VWS V14.00,2013-04-04 01:09:00,
2013-04-03 20:14:00,38.0,19.6,30.21,South,175,0.0,0.0,47,0.00,,---,0.00,VWS V14.00,2013-04-04 01:14:00,
2013-04-03 20:19:00,37.8,19.9,30.21,South,175,0.0,0.0,48,0.00,,---,0.00,VWS V14.00,2013-04-04 01:19:00,
2013-04-03 20:24:00,37.5,20.1,30.21,South,175,0.0,1.0,49,0.00,,---,0.00,VWS V14.00,2013-04-04 01:24:00,
2013-04-03 20:29:00,37.1,20.2,30.21,South,175,0.0,0.0,50,0.00,,---,0.00,VWS V14.00,2013-04-04 01:29:00,
2013-04-03 20:34:00,36.7,20.3,30.21,South,175,0.0,1.0,51,0.00,,---,0.00,VWS V14.00,2013-04-04 01:34:00,
2013-04-03 20:39:00,36.3,20.4,30.22,South,175,0.0,0.0,52,0.00,,---,0.00,VWS V14.00,2013-04-04 01:39:00,
2013-04-03 20:45:00,35.9,20.9,30.21,South,175,0.0,1.0,54,0.00,,---,0.00,VWS V14.00,2013-04-04 01:45:00,
2013-04-03 20:50:00,35.6,20.6,30.21,South,175,0.0,0.0,54,0.00,,---,0.00,VWS V14.00,2013-04-04 01:50:00,
2013-04-03 20:55:00,35.5,20.5,30.21,South,175,0.0,0.0,54,0.00,,---,0.00,VWS V14.00,2013-04-04 01:55:00,
2013-04-03 21:00:00,35.5,21.0,30.21,South,175,0.0,0.0,55,0.00,,---,0.00,VWS V14.00,2013-04-04 02:00:00,
2013-04-03 21:05:00,35.6,21.0,30.21,South,175,0.0,0.0,55,0.00,,---,0.00,VWS V14.00,2013-04-04 02:05:00,
2013-04-03 21:10:00,35.6,20.6,30.21,South,175,0.0,2.0,54,0.00,,---,0.00,VWS V14.00,2013-04-04 02:10:00,
2013-04-03 21:15:00,35.7,20.7,30.21,South,175,0.0,0.0,54,0.00,,---,0.00,VWS V14.00,2013-04-04 02:15:00,
2013-04-03 21:20:00,35.6,21.0,30.21,South,175,0.0,0.0,55,0.00,,---,0.00,VWS V14.00,2013-04-04 02:20:00,
2013-04-03 21:25:00,35.5,21.4,30.21,South,175,0.0,0.0,56,0.00,,---,0.00,VWS V14.00,2013-04-04 02:25:00,
2013-04-03 21:30:00,34.8,21.5,30.21,South,175,0.0,0.0,58,0.00,,---,0.00,VWS V14.00,2013-04-04 02:30:00,
2013-04-03 21:35:00,34.4,21.2,30.21,South,175,0.0,0.0,58,0.00,,---,0.00,VWS V14.00,2013-04-04 02:35:00,
2013-04-03 21:40:00,34.2,20.6,30.21,South,175,0.0,1.0,57,0.00,,---,0.00,VWS V14.00,2013-04-04 02:40:00,
2013-04-03 21:45:00,34.4,20.8,30.21,South,175,0.0,0.0,57,0.00,,---,0.00,VWS V14.00,2013-04-04 02:45:00,
2013-04-03 21:50:00,34.7,21.0,30.21,South,175,1.0,1.0,57,0.00,,---,0.00,VWS V14.00,2013-04-04 02:50:00,
2013-04-03 21:55:00,34.8,21.1,30.21,South,175,2.0,2.0,57,0.00,,---,0.00,VWS V14.00,2013-04-04 02:55:00,
2013-04-03 22:00:00,34.7,21.5,30.21,South,175,0.0,2.0,58,0.00,,---,0.00,VWS V14.00,2013-04-04 03:00:00,
2013-04-03 22:05:00,34.7,21.5,30.20,South,175,0.0,0.0,58,0.00,,---,0.00,VWS V14.00,2013-04-04 03:05:00,
2013-04-03 22:10:00,34.6,21.4,30.20,South,175,0.0,0.0,58,0.00,,---,0.00,VWS V14.00,2013-04-04 03:10:00,
2013-04-03 22:15:00,34.8,21.5,30.20,South,175,0.0,0.0,58,0.00,,---,0.00,VWS V14.00,2013-04-04 03:15:00,
2013-04-03 22:20:00,34.7,21.9,30.20,South,175,0.0,0.0,59,0.00,,---,0.00,VWS V14.00,2013-04-04 03:20:00,
2013-04-03 22:25:00,34.5,21.7,30.20,South,175,0.0,1.0,59,0.00,,---,0.00,VWS V14.00,2013-04-04 03:25:00,
2013-04-03 22:30:00,34.2,21.4,30.20,South,175,0.0,0.0,59,0.00,,---,0.00,VWS V14.00,2013-04-04 03:30:00,
2013-04-03 22:35:00,34.2,21.4,30.20,South,175,0.0,0.0,59,0.00,,---,0.00,VWS V14.00,2013-04-04 03:35:00,
2013-04-03 22:40:00,34.1,21.7,30.19,South,175,0.0,0.0,60,0.00,,---,0.00,VWS V14.00,2013-04-04 03:40:00,
2013-04-03 22:45:00,34.1,21.7,30.19,South,175,0.0,0.0,60,0.00,,---,0.00,VWS V14.00,2013-04-04 03:45:00,
2013-04-03 22:51:00,34.1,21.7,30.19,South,175,0.0,0.0,60,0.00,,---,0.00,VWS V14.00,2013-04-04 03:51:00,
2013-04-03 22:56:00,34.0,21.6,30.19,South,175,0.0,1.0,60,0.00,,---,0.00,VWS V14.00,2013-04-04 03:56:00,
2013-04-03 23:00:00,34.0,22.0,30.19,South,175,0.0,1.0,61,0.00,,---,0.00,VWS V14.00,2013-04-04 04:00:00,
2013-04-03 23:05:00,33.6,22.0,30.19,South,175,0.0,0.0,62,0.00,,---,0.00,VWS V14.00,2013-04-04 04:05:00,
2013-04-03 23:10:00,33.3,22.1,30.19,South,175,0.0,0.0,63,0.00,,---,0.00,VWS V14.00,2013-04-04 04:10:00,
2013-04-03 23:15:00,33.1,21.9,30.19,South,175,0.0,0.0,63,0.00,,---,0.00,VWS V14.00,2013-04-04 04:15:00,
2013-04-03 23:20:00,33.2,22.4,30.19,South,175,0.0,0.0,64,0.00,,---,0.00,VWS V14.00,2013-04-04 04:20:00,
2013-04-03 23:25:00,33.5,22.3,30.18,South,175,0.0,0.0,63,0.00,,---,0.00,VWS V14.00,2013-04-04 04:25:00,
2013-04-03 23:30:00,33.8,22.5,30.18,South,175,0.0,1.0,63,0.00,,---,0.00,VWS V14.00,2013-04-04 04:30:00,
2013-04-03 23:35:00,33.9,22.3,30.17,South,175,0.0,2.0,62,0.00,,---,0.00,VWS V14.00,2013-04-04 04:35:00,
2013-04-03 23:40:00,33.8,22.5,30.17,South,175,0.0,0.0,63,0.00,,---,0.00,VWS V14.00,2013-04-04 04:40:00,
2013-04-03 23:45:00,33.6,22.4,30.17,South,175,1.0,2.0,63,0.00,,---,0.00,VWS V14.00,2013-04-04 04:45:00,
2013-04-03 23:50:00,33.5,22.3,30.17,South,175,2.0,2.0,63,0.00,,---,0.00,VWS V14.00,2013-04-04 04:50:00,
2013-04-03 23:55:00,33.5,22.3,30.17,South,175,0.0,2.0,63,0.00,,---,0.00,VWS V14.00,2013-04-04 04:55:00,